Time;durP1;ratioP1;P1;durP2;ratioP2;P2;SDS_P1;SDS_P2;PMS_P1;PMS_P2;Temp;Humidity;BMP_temperature;BMP_pressure;BME280_temperature;BME280_humidity;BME280_pressure;Samples;Min_cycle;Max_cycle;Signal;HPM_P1;HPM_P2
2023/06/18 00:01:06;;;;;;;;;;;22.20;81.20;;;;;;7329936;19;109315;-59
2023/06/18 00:03:33;;;;;;;;;;;22.20;81.30;;;;;;7330141;19;110078;-60
2023/06/18 00:06:01;;;;;;;;;;;22.10;80.60;;;;;;7331883;19;109279;-59
2023/06/18 00:08:28;;;;;;;;;;;22.10;81.10;;;;;;7334197;19;109830;-59
2023/06/18 00:10:55;;;;;;;;;;;22.10;80.90;;;;;;7329337;19;112329;-59
2023/06/18 00:13:22;;;;;;;;;;;22.00;80.80;;;;;;7334756;19;109509;-59
2023/06/18 00:15:49;;;;;;;;;;;21.90;82.50;;;;;;7328875;19;109638;-59
2023/06/18 00:18:16;;;;;;;;;;;21.90;82.80;;;;;;7332947;19;112087;-59
2023/06/18 00:20:48;;;;;;;;;;;21.80;82.40;;;;;;7332246;19;120069;-59
2023/06/18 00:23:15;;;;;;;;;;;21.80;83.40;;;;;;7331490;19;109189;-59
2023/06/18 00:25:43;;;;;;;;;;;21.70;83.10;;;;;;7329057;19;109544;-59
2023/06/18 00:28:10;;;;;;;;;;;21.60;83.60;;;;;;7337636;19;108577;-60
2023/06/18 00:30:37;;;;;;;;;;;21.60;84.60;;;;;;7331801;19;111493;-60
2023/06/18 00:33:06;;;;;;;;;;;21.60;83.50;;;;;;7330045;19;113443;-59
2023/06/18 00:35:34;;;;;;;;;;;21.50;84.50;;;;;;7331570;19;109050;-60
2023/06/18 00:38:03;;;;;;;;;;;21.50;84.20;;;;;;7329677;19;110287;-60
2023/06/18 00:40:30;;;;;;;;;;;21.50;84.50;;;;;;7338472;19;109982;-59
2023/06/18 00:42:57;;;;;;;;;;;21.40;84.30;;;;;;7329444;19;110098;-59
2023/06/18 00:45:29;;;;;;;;;;;21.40;85.60;;;;;;7332479;19;109110;-59
2023/06/18 00:47:56;;;;;;;;;;;21.30;86.00;;;;;;7329621;19;110635;-59
2023/06/18 00:50:26;;;;;;;;;;;21.30;86.40;;;;;;7330164;19;109240;-59
2023/06/18 00:52:59;;;;;;;;;;;21.30;85.90;;;;;;7329871;19;109299;-59
2023/06/18 00:55:30;;;;;;;;;;;21.20;85.80;;;;;;7336075;19;109563;-59
2023/06/18 00:58:02;;;;;;;;;;;21.20;85.70;;;;;;7332368;19;109483;-59
2023/06/18 01:00:32;;;;;;;;;;;21.20;85.80;;;;;;7329560;19;110461;-59
2023/06/18 01:03:03;;;;;;;;;;;21.20;85.60;;;;;;7335930;19;108826;-59
2023/06/18 01:05:31;;;;;;;;;;;21.20;85.10;;;;;;7326373;19;110784;-60
2023/06/18 01:08:00;;;;;;;;;;;21.20;85.40;;;;;;7332015;19;111387;-59
2023/06/18 01:10:30;;;;;;;;;;;21.20;84.70;;;;;;7333779;19;109347;-59
2023/06/18 01:12:58;;;;;;;;;;;21.10;84.50;;;;;;7329771;19;111120;-60
2023/06/18 01:15:28;;;;;;;;;;;21.10;84.20;;;;;;7328459;19;108453;-60
2023/06/18 01:17:56;;;;;;;;;;;21.00;84.20;;;;;;7327566;19;109954;-60
2023/06/18 01:20:25;;;;;;;;;;;21.00;84.20;;;;;;7334366;19;108667;-60
2023/06/18 01:22:52;;;;;;;;;;;20.90;84.70;;;;;;7328376;19;109028;-59
2023/06/18 01:25:20;;;;;;;;;;;20.90;84.70;;;;;;7335280;19;109257;-59
2023/06/18 01:27:47;;;;;;;;;;;20.90;86.00;;;;;;7337592;19;110417;-59
2023/06/18 01:30:17;;;;;;;;;;;20.90;85.00;;;;;;7337504;19;109444;-59
2023/06/18 01:32:44;;;;;;;;;;;20.80;84.80;;;;;;7339699;19;108707;-59
2023/06/18 01:35:17;;;;;;;;;;;20.80;84.90;;;;;;7335293;19;109463;-59
2023/06/18 01:37:48;;;;;;;;;;;20.80;84.60;;;;;;7337797;19;110100;-59
2023/06/18 01:40:15;;;;;;;;;;;20.80;84.60;;;;;;7333539;19;109015;-59
2023/06/18 01:42:48;;;;;;;;;;;20.80;84.50;;;;;;7337377;19;110514;-59
2023/06/18 01:45:33;;;;;;;;;;;20.80;84.20;;;;;;7333969;19;109476;-59
2023/06/18 01:48:02;;;;;;;;;;;20.80;83.70;;;;;;7341392;19;109375;-59
2023/06/18 01:50:30;;;;;;;;;;;20.90;84.70;;;;;;7335488;19;109540;-59
2023/06/18 01:52:58;;;;;;;;;;;20.80;84.60;;;;;;7339540;19;108876;-59
2023/06/18 01:55:28;;;;;;;;;;;20.80;84.40;;;;;;7336691;19;108684;-59
2023/06/18 01:57:58;;;;;;;;;;;20.80;83.90;;;;;;7337313;19;109605;-59
2023/06/18 02:00:26;;;;;;;;;;;20.90;84.00;;;;;;7335595;19;108853;-59
2023/06/18 02:02:52;;;;;;;;;;;20.80;84.10;;;;;;7338663;19;109767;-59
2023/06/18 02:05:20;;;;;;;;;;;20.80;84.10;;;;;;7331059;19;110362;-59
2023/06/18 02:07:47;;;;;;;;;;;20.80;85.00;;;;;;7343193;19;108903;-59
2023/06/18 02:10:14;;;;;;;;;;;20.70;85.20;;;;;;7339513;19;110437;-59
2023/06/18 02:12:41;;;;;;;;;;;20.70;86.50;;;;;;7340163;19;108656;-59
2023/06/18 02:15:09;;;;;;;;;;;20.70;86.40;;;;;;7332781;19;109633;-59
2023/06/18 02:17:36;;;;;;;;;;;20.60;85.90;;;;;;7337798;19;109238;-59
2023/06/18 02:20:04;;;;;;;;;;;20.60;85.90;;;;;;7332968;19;110030;-59
2023/06/18 02:22:31;;;;;;;;;;;20.60;86.40;;;;;;7333650;19;113885;-59
2023/06/18 02:24:58;;;;;;;;;;;20.50;86.60;;;;;;7334531;19;109639;-60
2023/06/18 02:27:25;;;;;;;;;;;20.50;86.40;;;;;;7332021;19;110886;-59
2023/06/18 02:29:53;;;;;;;;;;;20.40;86.20;;;;;;7340166;19;109879;-59
2023/06/18 02:32:20;;;;;;;;;;;20.40;86.40;;;;;;7332293;19;110358;-59
2023/06/18 02:34:47;;;;;;;;;;;20.40;86.20;;;;;;7334487;19;110085;-59
2023/06/18 02:37:14;;;;;;;;;;;20.40;86.00;;;;;;7327977;19;109643;-60
2023/06/18 02:39:41;;;;;;;;;;;20.30;85.80;;;;;;7331872;19;108798;-60
2023/06/18 02:42:09;;;;;;;;;;;20.40;85.20;;;;;;7332820;19;108706;-59
2023/06/18 02:44:36;;;;;;;;;;;20.40;85.40;;;;;;7328836;19;109634;-59
2023/06/18 02:47:03;;;;;;;;;;;20.40;85.70;;;;;;7335475;19;109607;-62
2023/06/18 02:49:31;;;;;;;;;;;20.40;85.70;;;;;;7337479;19;109770;-59
2023/06/18 02:51:59;;;;;;;;;;;20.40;85.00;;;;;;7339655;19;109990;-59
2023/06/18 02:54:26;;;;;;;;;;;20.40;85.10;;;;;;7337761;19;108598;-59
2023/06/18 02:56:53;;;;;;;;;;;20.40;85.50;;;;;;7334770;19;109559;-59
2023/06/18 02:59:20;;;;;;;;;;;20.40;85.40;;;;;;7338196;19;109542;-59
2023/06/18 03:01:48;;;;;;;;;;;20.40;85.00;;;;;;7335857;19;109678;-59
2023/06/18 03:04:15;;;;;;;;;;;20.30;85.30;;;;;;7337865;19;111033;-59
2023/06/18 03:06:42;;;;;;;;;;;20.30;85.40;;;;;;7331574;19;110179;-59
2023/06/18 03:09:09;;;;;;;;;;;20.30;85.50;;;;;;7336659;19;110185;-59
2023/06/18 03:11:36;;;;;;;;;;;20.30;85.80;;;;;;7335453;19;110387;-59
2023/06/18 03:14:03;;;;;;;;;;;20.30;86.20;;;;;;7339575;19;108884;-60
2023/06/18 03:16:31;;;;;;;;;;;20.20;87.20;;;;;;7334399;19;111269;-59
2023/06/18 03:18:58;;;;;;;;;;;20.20;87.50;;;;;;7335710;19;109403;-59
2023/06/18 03:21:25;;;;;;;;;;;20.10;88.00;;;;;;7332406;19;109246;-59
2023/06/18 03:23:52;;;;;;;;;;;20.10;87.80;;;;;;7333618;19;110442;-59
2023/06/18 03:26:19;;;;;;;;;;;20.10;88.60;;;;;;7337434;19;109011;-58
2023/06/18 03:28:46;;;;;;;;;;;20.10;89.00;;;;;;7336096;19;108465;-58
2023/06/18 03:31:13;;;;;;;;;;;20.00;88.10;;;;;;7335040;19;109434;-57
2023/06/18 03:33:40;;;;;;;;;;;20.00;88.40;;;;;;7333101;19;108712;-57
2023/06/18 03:36:07;;;;;;;;;;;20.00;88.60;;;;;;7335921;19;109072;-60
2023/06/18 03:38:34;;;;;;;;;;;20.00;88.30;;;;;;7329967;19;113773;-58
2023/06/18 03:41:01;;;;;;;;;;;19.90;88.00;;;;;;7333231;19;109564;-57
2023/06/18 03:43:29;;;;;;;;;;;20.00;87.90;;;;;;7332198;19;110628;-60
2023/06/18 03:45:56;;;;;;;;;;;20.00;88.00;;;;;;7332883;19;110155;-60
2023/06/18 03:48:27;;;;;;;;;;;20.00;88.90;;;;;;7332212;19;109107;-60
2023/06/18 03:50:54;;;;;;;;;;;20.00;88.70;;;;;;7335219;19;110452;-60
2023/06/18 03:53:22;;;;;;;;;;;19.90;88.80;;;;;;7332797;19;108857;-60
2023/06/18 03:55:49;;;;;;;;;;;19.90;89.20;;;;;;7336381;19;110332;-60
2023/06/18 03:58:16;;;;;;;;;;;19.90;88.50;;;;;;7333986;19;110535;-60
2023/06/18 04:00:43;;;;;;;;;;;19.90;88.20;;;;;;7333070;19;109780;-65
2023/06/18 04:03:11;;;;;;;;;;;20.00;87.60;;;;;;7333804;19;110073;-61
2023/06/18 04:05:38;;;;;;;;;;;20.00;87.30;;;;;;7333000;19;109327;-60
2023/06/18 04:08:05;;;;;;;;;;;20.00;87.10;;;;;;7334675;19;109208;-60
2023/06/18 04:10:32;;;;;;;;;;;20.10;86.50;;;;;;7334406;19;109113;-60
2023/06/18 04:12:59;;;;;;;;;;;20.20;86.30;;;;;;7332546;19;109040;-60
2023/06/18 04:15:26;;;;;;;;;;;20.20;85.30;;;;;;7331672;19;108948;-61
2023/06/18 04:17:53;;;;;;;;;;;20.30;85.30;;;;;;7336930;19;110792;-60
2023/06/18 04:20:20;;;;;;;;;;;20.30;85.50;;;;;;7332128;19;110422;-60
2023/06/18 04:22:48;;;;;;;;;;;20.30;86.40;;;;;;7331365;19;109471;-60
2023/06/18 04:25:15;;;;;;;;;;;20.40;87.20;;;;;;7333831;19;109010;-60
2023/06/18 04:27:42;;;;;;;;;;;20.40;86.80;;;;;;7331965;19;109655;-60
2023/06/18 04:30:09;;;;;;;;;;;20.40;86.70;;;;;;7326859;19;109279;-60
2023/06/18 04:32:36;;;;;;;;;;;20.50;86.50;;;;;;7334934;19;109014;-60
2023/06/18 04:35:03;;;;;;;;;;;20.50;86.60;;;;;;7328245;19;110904;-60
2023/06/18 04:37:31;;;;;;;;;;;20.50;86.60;;;;;;7331757;19;110526;-60
2023/06/18 04:39:58;;;;;;;;;;;20.60;86.10;;;;;;7337914;19;109375;-60
2023/06/18 04:42:25;;;;;;;;;;;20.70;86.50;;;;;;7334173;19;110498;-60
2023/06/18 04:44:52;;;;;;;;;;;20.80;87.40;;;;;;7331237;19;110813;-60
2023/06/18 04:47:19;;;;;;;;;;;20.90;88.70;;;;;;7330999;19;109587;-60
2023/06/18 04:49:47;;;;;;;;;;;20.90;88.50;;;;;;7324083;19;110548;-60
2023/06/18 04:52:16;;;;;;;;;;;21.00;87.60;;;;;;7333078;19;108861;-60
2023/06/18 04:54:44;;;;;;;;;;;21.10;86.10;;;;;;7333412;19;109321;-60
2023/06/18 04:57:11;;;;;;;;;;;21.10;85.80;;;;;;7328683;19;110533;-58
2023/06/18 04:59:39;;;;;;;;;;;21.20;85.30;;;;;;7330655;19;110499;-60
2023/06/18 05:02:06;;;;;;;;;;;21.30;85.60;;;;;;7332826;19;110099;-60
2023/06/18 05:04:33;;;;;;;;;;;21.40;85.90;;;;;;7331702;19;110852;-60
2023/06/18 05:07:02;;;;;;;;;;;21.50;86.20;;;;;;7330926;19;110923;-60
2023/06/18 05:09:29;;;;;;;;;;;21.60;84.90;;;;;;7331521;19;110247;-64
2023/06/18 05:11:56;;;;;;;;;;;21.60;84.30;;;;;;7332710;19;108776;-60
2023/06/18 05:14:23;;;;;;;;;;;21.70;84.40;;;;;;7329364;19;109393;-58
2023/06/18 05:16:50;;;;;;;;;;;21.70;84.10;;;;;;7330932;19;110433;-57
2023/06/18 05:19:17;;;;;;;;;;;21.70;84.70;;;;;;7330725;19;108918;-57
2023/06/18 05:21:44;;;;;;;;;;;21.70;83.90;;;;;;7333664;19;110757;-60
2023/06/18 05:24:11;;;;;;;;;;;21.80;83.90;;;;;;7335985;19;110370;-60
2023/06/18 05:26:38;;;;;;;;;;;21.80;83.80;;;;;;7332816;19;108996;-60
2023/06/18 05:29:05;;;;;;;;;;;21.70;83.80;;;;;;7327667;19;109092;-60
2023/06/18 05:31:33;;;;;;;;;;;21.80;84.20;;;;;;7331622;19;109232;-57
2023/06/18 05:34:00;;;;;;;;;;;21.70;84.20;;;;;;7331048;19;108749;-57
2023/06/18 05:36:27;;;;;;;;;;;21.70;84.10;;;;;;7330272;19;109179;-58
2023/06/18 05:38:59;;;;;;;;;;;21.70;83.80;;;;;;7331742;19;109598;-57
2023/06/18 05:41:26;;;;;;;;;;;21.70;84.20;;;;;;7332480;19;108615;-58
2023/06/18 05:43:54;;;;;;;;;;;21.70;84.40;;;;;;7331760;19;110187;-65
2023/06/18 05:46:20;;;;;;;;;;;21.70;85.10;;;;;;7331600;19;109317;-64
2023/06/18 05:48:47;;;;;;;;;;;21.70;86.40;;;;;;7328318;19;109682;-60
2023/06/18 05:51:15;;;;;;;;;;;21.70;86.50;;;;;;7330628;19;108407;-60
2023/06/18 05:53:42;;;;;;;;;;;21.60;87.10;;;;;;7330935;19;110186;-63
2023/06/18 05:56:09;;;;;;;;;;;21.60;87.30;;;;;;7327078;19;109285;-60
2023/06/18 05:58:36;;;;;;;;;;;21.60;87.90;;;;;;7332787;19;108555;-59
2023/06/18 06:01:04;;;;;;;;;;;21.60;89.70;;;;;;7329061;19;108628;-61
2023/06/18 06:03:31;;;;;;;;;;;21.60;90.20;;;;;;7326253;19;110603;-58
2023/06/18 06:06:00;;;;;;;;;;;21.60;90.50;;;;;;7333686;19;108899;-58
2023/06/18 06:08:27;;;;;;;;;;;21.60;90.30;;;;;;7329605;19;109633;-57
2023/06/18 06:10:54;;;;;;;;;;;21.60;90.20;;;;;;7326143;19;109860;-60
2023/06/18 06:13:21;;;;;;;;;;;21.60;90.60;;;;;;7330960;19;110222;-58
2023/06/18 06:15:48;;;;;;;;;;;21.60;90.40;;;;;;7336618;19;109957;-58
2023/06/18 06:18:15;;;;;;;;;;;21.60;90.30;;;;;;7335327;19;110494;-58
2023/06/18 06:20:42;;;;;;;;;;;21.60;90.20;;;;;;7336793;19;109342;-57
2023/06/18 06:23:10;;;;;;;;;;;21.60;90.00;;;;;;7334061;19;110241;-57
2023/06/18 06:25:37;;;;;;;;;;;21.70;89.30;;;;;;7337171;19;109142;-58
2023/06/18 06:28:05;;;;;;;;;;;21.80;89.30;;;;;;7339188;19;110956;-58
2023/06/18 06:30:32;;;;;;;;;;;21.90;89.00;;;;;;7335683;19;108321;-57
2023/06/18 06:32:59;;;;;;;;;;;21.90;89.00;;;;;;7337654;19;108788;-58
2023/06/18 06:35:28;;;;;;;;;;;22.00;89.40;;;;;;7331726;19;111963;-59
2023/06/18 06:37:55;;;;;;;;;;;22.00;89.50;;;;;;7337557;19;109141;-59
2023/06/18 06:40:23;;;;;;;;;;;22.10;89.80;;;;;;7334161;19;109946;-59
2023/06/18 06:42:50;;;;;;;;;;;22.20;89.70;;;;;;7336087;19;111356;-59
2023/06/18 06:45:17;;;;;;;;;;;22.30;89.90;;;;;;7334041;19;109004;-59
2023/06/18 06:47:46;;;;;;;;;;;22.30;89.90;;;;;;7334409;19;108916;-58
2023/06/18 06:50:13;;;;;;;;;;;22.40;89.40;;;;;;7340954;19;109254;-59
2023/06/18 06:52:40;;;;;;;;;;;22.50;89.60;;;;;;7334878;19;109147;-59
2023/06/18 06:55:08;;;;;;;;;;;22.50;89.60;;;;;;7334097;19;111991;-59
2023/06/18 06:57:35;;;;;;;;;;;22.60;89.40;;;;;;7336698;19;114110;-58
2023/06/18 07:00:03;;;;;;;;;;;22.70;89.00;;;;;;7336108;19;109000;-58
2023/06/18 07:02:30;;;;;;;;;;;22.80;88.70;;;;;;7334313;19;109800;-59
2023/06/18 07:04:57;;;;;;;;;;;22.90;89.10;;;;;;7336606;19;109173;-59
2023/06/18 07:07:24;;;;;;;;;;;23.00;88.00;;;;;;7332584;19;111874;-59
2023/06/18 07:09:51;;;;;;;;;;;23.10;88.20;;;;;;7333888;19;109369;-59
2023/06/18 07:12:18;;;;;;;;;;;23.20;88.10;;;;;;7341819;19;108623;-59
2023/06/18 07:14:48;;;;;;;;;;;23.30;87.00;;;;;;7334548;19;109550;-59
2023/06/18 07:17:15;;;;;;;;;;;23.50;86.60;;;;;;7335737;19;108828;-58
2023/06/18 07:19:42;;;;;;;;;;;23.60;85.90;;;;;;7335169;19;109176;-59
2023/06/18 07:22:09;;;;;;;;;;;23.70;85.60;;;;;;7333504;19;109493;-61
2023/06/18 07:24:36;;;;;;;;;;;23.70;84.20;;;;;;7335559;19;109563;-58
2023/06/18 07:27:03;;;;;;;;;;;23.70;83.40;;;;;;7332051;19;111183;-59
2023/06/18 07:29:30;;;;;;;;;;;23.80;84.10;;;;;;7334709;19;109454;-59
2023/06/18 07:31:57;;;;;;;;;;;23.90;84.30;;;;;;7335441;19;108583;-59
2023/06/18 07:34:24;;;;;;;;;;;23.90;82.20;;;;;;7339877;19;109174;-59
2023/06/18 07:36:51;;;;;;;;;;;23.90;84.00;;;;;;7333332;19;108954;-59
2023/06/18 07:39:18;;;;;;;;;;;24.00;83.60;;;;;;7333829;19;109735;-58
2023/06/18 07:41:49;;;;;;;;;;;24.00;84.30;;;;;;7333369;19;110157;-59
2023/06/18 07:44:16;;;;;;;;;;;24.00;84.20;;;;;;7332427;19;108536;-59
2023/06/18 07:46:44;;;;;;;;;;;24.10;83.90;;;;;;7331807;19;109869;-59
2023/06/18 07:49:12;;;;;;;;;;;24.10;84.70;;;;;;7334080;19;109474;-59
2023/06/18 07:51:40;;;;;;;;;;;24.10;84.90;;;;;;7330708;19;110816;-59
2023/06/18 07:54:07;;;;;;;;;;;24.10;85.40;;;;;;7335275;19;109640;-59
2023/06/18 07:56:34;;;;;;;;;;;24.10;85.90;;;;;;7338971;19;110116;-59
2023/06/18 07:59:01;;;;;;;;;;;24.10;86.00;;;;;;7335377;19;108895;-59
2023/06/18 08:01:28;;;;;;;;;;;24.20;85.90;;;;;;7334164;19;109538;-58
2023/06/18 08:03:55;;;;;;;;;;;24.20;86.60;;;;;;7331060;19;110488;-59
2023/06/18 08:06:22;;;;;;;;;;;24.20;88.30;;;;;;7332928;19;110139;-58
2023/06/18 08:08:49;;;;;;;;;;;24.10;88.10;;;;;;7331210;19;109445;-59
2023/06/18 08:11:17;;;;;;;;;;;24.10;89.10;;;;;;7332513;19;108751;-58
2023/06/18 08:13:44;;;;;;;;;;;24.10;89.30;;;;;;7335061;19;108475;-59
2023/06/18 08:16:12;;;;;;;;;;;24.10;90.80;;;;;;7337006;19;109873;-59
2023/06/18 08:18:39;;;;;;;;;;;24.10;91.70;;;;;;7333481;19;108742;-58
2023/06/18 08:21:06;;;;;;;;;;;24.00;91.50;;;;;;7330508;19;110787;-58
2023/06/18 08:23:33;;;;;;;;;;;24.00;92.50;;;;;;7335050;19;108510;-58
2023/06/18 08:26:00;;;;;;;;;;;24.00;92.70;;;;;;7334002;19;109971;-58
2023/06/18 08:28:27;;;;;;;;;;;23.90;92.80;;;;;;7336234;19;110494;-59
2023/06/18 08:30:54;;;;;;;;;;;23.90;93.10;;;;;;7332872;19;108951;-59
2023/06/18 08:33:21;;;;;;;;;;;23.90;94.40;;;;;;7332650;19;109369;-58
2023/06/18 08:35:48;;;;;;;;;;;23.90;94.20;;;;;;7331203;19;110424;-59
2023/06/18 08:38:15;;;;;;;;;;;23.80;94.90;;;;;;7337850;19;108979;-59
2023/06/18 08:40:54;;;;;;;;;;;23.80;95.10;;;;;;7332065;19;109452;-59
2023/06/18 08:43:26;;;;;;;;;;;23.80;96.30;;;;;;7331488;19;108533;-59
2023/06/18 08:45:53;;;;;;;;;;;23.80;96.80;;;;;;7333411;19;109019;-59
2023/06/18 08:48:24;;;;;;;;;;;23.80;97.40;;;;;;7330570;19;109780;-59
2023/06/18 08:50:59;;;;;;;;;;;23.80;97.20;;;;;;7331966;19;108795;-59
2023/06/18 08:53:30;;;;;;;;;;;23.70;97.40;;;;;;7331721;19;108531;-59
2023/06/18 08:55:57;;;;;;;;;;;23.80;97.50;;;;;;7330657;19;111031;-59
2023/06/18 08:58:26;;;;;;;;;;;23.80;96.40;;;;;;7334675;19;109428;-59
2023/06/18 09:00:54;;;;;;;;;;;23.80;97.20;;;;;;7332262;19;109985;-59
2023/06/18 09:03:21;;;;;;;;;;;23.80;96.30;;;;;;7333841;19;109036;-58
2023/06/18 09:05:48;;;;;;;;;;;23.80;96.90;;;;;;7331906;19;109138;-58
2023/06/18 09:08:16;;;;;;;;;;;23.90;96.50;;;;;;7328882;19;109547;-59
2023/06/18 09:10:43;;;;;;;;;;;23.80;96.60;;;;;;7331166;19;111038;-59
2023/06/18 09:13:10;;;;;;;;;;;23.80;97.00;;;;;;7329596;19;109685;-58
2023/06/18 09:15:37;;;;;;;;;;;23.80;96.90;;;;;;7330041;19;109189;-58
2023/06/18 09:18:05;;;;;;;;;;;23.80;96.60;;;;;;7330497;19;108814;-59
2023/06/18 09:20:32;;;;;;;;;;;23.80;95.90;;;;;;7329904;19;108837;-59
2023/06/18 09:23:05;;;;;;;;;;;23.90;96.20;;;;;;7335139;19;110611;-59
2023/06/18 09:25:32;;;;;;;;;;;23.90;95.40;;;;;;7331750;19;109356;-59
2023/06/18 09:28:01;;;;;;;;;;;24.00;96.10;;;;;;7333677;19;110473;-59
2023/06/18 09:30:28;;;;;;;;;;;24.10;96.10;;;;;;7331738;19;108950;-58
2023/06/18 09:32:59;;;;;;;;;;;24.20;96.70;;;;;;7332091;19;108878;-58
2023/06/18 09:35:27;;;;;;;;;;;24.20;95.60;;;;;;7330719;19;111281;-59
2023/06/18 09:37:54;;;;;;;;;;;24.30;96.00;;;;;;7333547;19;108722;-59
2023/06/18 09:40:21;;;;;;;;;;;24.30;96.10;;;;;;7330839;19;109963;-59
2023/06/18 09:42:52;;;;;;;;;;;24.30;95.90;;;;;;7332218;19;109204;-59
2023/06/18 09:45:20;;;;;;;;;;;24.40;97.10;;;;;;7334315;19;110436;-58
2023/06/18 09:47:48;;;;;;;;;;;24.40;96.90;;;;;;7334816;19;109447;-59
2023/06/18 09:50:15;;;;;;;;;;;24.50;96.20;;;;;;7339687;19;109677;-59
2023/06/18 09:52:46;;;;;;;;;;;24.50;97.00;;;;;;7336181;19;108311;-59
2023/06/18 09:55:28;;;;;;;;;;;24.50;97.00;;;;;;7338071;19;109434;-59
2023/06/18 09:57:57;;;;;;;;;;;24.50;97.40;;;;;;7339357;19;109441;-58
2023/06/18 10:00:25;;;;;;;;;;;24.40;97.20;;;;;;7337567;19;109387;-59
2023/06/18 10:02:52;;;;;;;;;;;24.50;97.40;;;;;;7339361;19;110070;-59
2023/06/18 10:05:20;;;;;;;;;;;24.50;98.70;;;;;;7338380;19;108980;-59
2023/06/18 10:07:48;;;;;;;;;;;24.50;98.30;;;;;;7339320;19;108530;-59
2023/06/18 10:10:16;;;;;;;;;;;24.50;98.80;;;;;;7330118;19;109975;-59
2023/06/18 10:12:44;;;;;;;;;;;24.50;98.00;;;;;;7335521;19;108593;-58
2023/06/18 10:15:12;;;;;;;;;;;24.40;98.10;;;;;;7334070;19;109434;-59
2023/06/18 10:17:45;;;;;;;;;;;24.40;97.90;;;;;;7335012;19;108891;-59
2023/06/18 10:20:13;;;;;;;;;;;24.40;98.60;;;;;;7336458;19;108964;-58
2023/06/18 10:22:45;;;;;;;;;;;24.30;99.00;;;;;;7334919;19;110086;-59
2023/06/18 10:25:12;;;;;;;;;;;24.30;99.60;;;;;;7338980;19;108529;-59
2023/06/18 10:27:40;;;;;;;;;;;24.40;99.20;;;;;;7342605;19;109082;-59
2023/06/18 10:30:08;;;;;;;;;;;24.50;98.70;;;;;;7333922;19;109887;-59
2023/06/18 10:32:36;;;;;;;;;;;24.50;99.00;;;;;;7336139;19;109106;-58
2023/06/18 10:35:11;;;;;;;;;;;24.50;99.30;;;;;;7330174;19;111261;-59
2023/06/18 10:37:39;;;;;;;;;;;24.60;99.80;;;;;;7335962;19;109860;-58
2023/06/18 10:40:06;;;;;;;;;;;24.50;99.70;;;;;;7331958;19;110130;-59
2023/06/18 10:42:34;;;;;;;;;;;24.60;99.60;;;;;;7332523;19;109780;-59
2023/06/18 10:45:10;;;;;;;;;;;24.70;99.90;;;;;;7332049;19;109082;-63
2023/06/18 10:47:38;;;;;;;;;;;24.80;99.90;;;;;;7335566;19;109537;-59
2023/06/18 10:50:13;;;;;;;;;;;24.80;99.50;;;;;;7338655;19;110750;-59
2023/06/18 10:52:42;;;;;;;;;;;24.90;99.90;;;;;;7336068;19;108539;-59
2023/06/18 10:55:12;;;;;;;;;;;25.00;99.30;;;;;;7331792;19;109692;-59
2023/06/18 10:57:41;;;;;;;;;;;25.10;99.60;;;;;;7336873;19;108887;-58
2023/06/18 11:00:29;;;;;;;;;;;25.10;98.70;;;;;;7333422;19;108930;-59
2023/06/18 11:02:58;;;;;;;;;;;25.20;98.60;;;;;;7333758;19;110129;-58
2023/06/18 11:05:31;;;;;;;;;;;25.40;99.30;;;;;;7337786;19;108958;-59
2023/06/18 11:07:59;;;;;;;;;;;25.40;98.50;;;;;;7335446;19;111261;-59
2023/06/18 11:10:32;;;;;;;;;;;25.40;98.70;;;;;;7335497;19;110811;-59
2023/06/18 11:13:01;;;;;;;;;;;25.50;99.40;;;;;;7342183;19;109052;-59
2023/06/18 11:15:28;;;;;;;;;;;25.40;98.30;;;;;;7333739;19;110417;-58
2023/06/18 11:18:00;;;;;;;;;;;25.40;98.30;;;;;;7337306;19;108426;-59
2023/06/18 11:20:35;;;;;;;;;;;25.40;98.50;;;;;;7335167;19;109304;-59
2023/06/18 11:23:03;;;;;;;;;;;25.40;98.60;;;;;;7334494;19;109185;-58
2023/06/18 11:25:30;;;;;;;;;;;25.40;98.30;;;;;;7337019;19;108356;-59
2023/06/18 11:28:02;;;;;;;;;;;25.50;98.40;;;;;;7336663;19;109055;-58
2023/06/18 11:30:33;;;;;;;;;;;25.60;98.50;;;;;;7331676;19;110555;-59
2023/06/18 11:33:01;;;;;;;;;;;25.70;99.00;;;;;;7336859;19;108917;-58
2023/06/18 11:35:28;;;;;;;;;;;25.70;98.90;;;;;;7338089;19;109012;-59
2023/06/18 11:37:55;;;;;;;;;;;25.80;98.40;;;;;;7336631;19;108796;-59
2023/06/18 11:40:23;;;;;;;;;;;25.80;98.40;;;;;;7337164;19;108258;-59
2023/06/18 11:42:52;;;;;;;;;;;25.80;98.10;;;;;;7335833;19;112712;-58
2023/06/18 11:45:20;;;;;;;;;;;25.90;97.90;;;;;;7334178;19;108462;-59
2023/06/18 11:47:49;;;;;;;;;;;26.10;98.60;;;;;;7332926;19;109553;-59
2023/06/18 11:50:16;;;;;;;;;;;26.20;97.90;;;;;;7337094;19;109797;-59
2023/06/18 11:52:44;;;;;;;;;;;26.40;98.10;;;;;;7334455;19;108426;-59
2023/06/18 11:55:11;;;;;;;;;;;26.50;98.20;;;;;;7337384;19;109191;-59
2023/06/18 11:57:39;;;;;;;;;;;26.60;97.40;;;;;;7339000;19;109428;-58
2023/06/18 12:00:10;;;;;;;;;;;26.70;96.30;;;;;;7334378;19;109752;-59
2023/06/18 12:02:40;;;;;;;;;;;26.70;97.20;;;;;;7331969;19;109318;-59
2023/06/18 12:05:08;;;;;;;;;;;26.80;96.70;;;;;;7331768;19;111020;-59
2023/06/18 12:07:41;;;;;;;;;;;26.70;95.10;;;;;;7331811;19;109508;-59
2023/06/18 12:10:09;;;;;;;;;;;26.70;95.50;;;;;;7334744;19;110192;-59
2023/06/18 12:12:37;;;;;;;;;;;26.60;95.40;;;;;;7334825;19;111451;-59
2023/06/18 12:15:09;;;;;;;;;;;26.60;95.30;;;;;;7333897;19;109226;-59
2023/06/18 12:17:36;;;;;;;;;;;26.60;95.50;;;;;;7335858;19;109476;-58
2023/06/18 12:20:08;;;;;;;;;;;26.60;95.20;;;;;;7340134;19;109182;-59
2023/06/18 12:22:39;;;;;;;;;;;26.50;94.30;;;;;;7335621;19;109816;-59
2023/06/18 12:25:07;;;;;;;;;;;26.50;94.80;;;;;;7333336;19;108788;-59
2023/06/18 12:27:34;;;;;;;;;;;26.40;94.90;;;;;;7333994;19;108561;-59
2023/06/18 12:30:02;;;;;;;;;;;26.40;94.90;;;;;;7330579;19;109689;-59
2023/06/18 12:32:29;;;;;;;;;;;26.30;94.50;;;;;;7331726;19;109363;-59
2023/06/18 12:34:56;;;;;;;;;;;26.20;94.80;;;;;;7333007;19;108823;-59
2023/06/18 12:37:33;;;;;;;;;;;26.10;94.30;;;;;;7333352;19;109562;-59
2023/06/18 12:40:07;;;;;;;;;;;26.10;93.90;;;;;;7337815;19;108314;-59
2023/06/18 12:42:35;;;;;;;;;;;26.10;93.10;;;;;;7331418;19;109161;-59
2023/06/18 12:45:02;;;;;;;;;;;26.10;93.60;;;;;;7330255;19;112006;-60
2023/06/18 12:47:31;;;;;;;;;;;26.10;93.80;;;;;;7330497;19;109354;-59
2023/06/18 12:49:58;;;;;;;;;;;26.00;93.30;;;;;;7333760;19;109780;-59
2023/06/18 12:52:26;;;;;;;;;;;26.00;93.80;;;;;;7332571;19;109164;-60
2023/06/18 12:54:57;;;;;;;;;;;26.10;93.80;;;;;;7331546;19;109276;-59
2023/06/18 12:57:27;;;;;;;;;;;26.20;93.50;;;;;;7330647;19;109664;-58
2023/06/18 12:59:54;;;;;;;;;;;26.50;93.40;;;;;;7332305;19;109301;-59
2023/06/18 13:02:21;;;;;;;;;;;26.70;93.50;;;;;;7335075;19;109692;-59
2023/06/18 13:04:50;;;;;;;;;;;27.00;94.00;;;;;;7333278;19;109528;-59
2023/06/18 13:07:17;;;;;;;;;;;27.10;92.60;;;;;;7330846;19;110136;-63
2023/06/18 13:09:44;;;;;;;;;;;27.30;92.90;;;;;;7329719;19;109510;-59
2023/06/18 13:12:12;;;;;;;;;;;27.40;91.90;;;;;;7332536;19;108652;-59
2023/06/18 13:14:41;;;;;;;;;;;27.40;91.60;;;;;;7330783;19;112113;-59
2023/06/18 13:17:09;;;;;;;;;;;27.30;90.60;;;;;;7328813;19;109673;-59
2023/06/18 13:19:36;;;;;;;;;;;27.30;90.90;;;;;;7330435;19;109416;-60
2023/06/18 13:22:19;;;;;;;;;;;27.30;91.30;;;;;;7332407;19;110719;-58
2023/06/18 13:24:47;;;;;;;;;;;27.30;90.70;;;;;;7344199;19;109288;-60
2023/06/18 13:27:14;;;;;;;;;;;27.20;91.20;;;;;;7338908;19;108388;-60
2023/06/18 13:29:41;;;;;;;;;;;27.20;91.30;;;;;;7337760;19;109223;-59
2023/06/18 13:32:09;;;;;;;;;;;27.20;90.90;;;;;;7336950;19;110172;-59
2023/06/18 13:34:36;;;;;;;;;;;27.10;90.30;;;;;;7335224;19;110060;-59
2023/06/18 13:37:03;;;;;;;;;;;27.10;90.60;;;;;;7336387;19;109673;-59
2023/06/18 13:39:30;;;;;;;;;;;27.30;90.90;;;;;;7338292;19;108943;-59
2023/06/18 13:41:57;;;;;;;;;;;27.50;91.00;;;;;;7336617;19;108995;-60
2023/06/18 13:44:24;;;;;;;;;;;27.70;91.50;;;;;;7338013;19;109650;-59
2023/06/18 13:46:52;;;;;;;;;;;28.10;90.40;;;;;;7340170;19;108871;-59
2023/06/18 13:49:19;;;;;;;;;;;28.30;89.30;;;;;;7341040;19;110115;-60
2023/06/18 13:51:46;;;;;;;;;;;28.60;90.10;;;;;;7335939;19;108673;-59
2023/06/18 13:54:13;;;;;;;;;;;28.90;90.00;;;;;;7337122;19;109458;-63
2023/06/18 13:56:40;;;;;;;;;;;29.20;90.00;;;;;;7335733;19;112486;-59
2023/06/18 13:59:07;;;;;;;;;;;29.50;86.80;;;;;;7336490;19;109407;-60
2023/06/18 14:01:34;;;;;;;;;;;29.50;85.30;;;;;;7335183;19;110179;-59
2023/06/18 14:04:01;;;;;;;;;;;29.50;84.30;;;;;;7335330;19;109259;-60
2023/06/18 14:06:34;;;;;;;;;;;29.40;83.40;;;;;;7337348;19;108765;-59
2023/06/18 14:09:01;;;;;;;;;;;29.40;84.10;;;;;;7338388;19;108732;-59